Terminal Aerodrome Forecast
Issued by NWS Sterling, VA

Current Version | Previous Version | Text Only | Print | Product List | Glossary Off
Versions: 1 2 3 4 5 6 7 8 9 10 11 12 13 14 15 16 17 18 19 20 21 22 23 24

000
FTUS41 KLWX 191600 AAC
TAFIAD
TAF AMD
KIAD 191600Z 1916/2018 07005KT P6SM SCT025 BKN050
     FM192000 12006KT P6SM SCT050
     FM200100 VRB03KT P6SM FEW050 SCT130
     FM201600 14006KT P6SM BKN050=

USA.gov is the U.S. government's official web portal to all federal, state and local government web resources and services.